createdAt,value
2022-12-01T00:01:15.912Z,101037.47
2022-12-01T00:03:42.821Z,101036.66
2022-12-01T00:06:17.767Z,101034.94
2022-12-01T00:09:06.665Z,101029.81
2022-12-01T00:11:34.909Z,101032.34
2022-12-01T00:14:02.737Z,101028.91
2022-12-01T00:16:29.720Z,101026.34
2022-12-01T00:18:56.809Z,101024.63
2022-12-01T00:21:25.091Z,101026.41
2022-12-01T00:23:54.790Z,101026.41
2022-12-01T00:26:22.727Z,101029.81
2022-12-01T00:28:59.564Z,101028.22
2022-12-01T00:31:26.579Z,101036.00
2022-12-01T00:33:53.797Z,101035.97
2022-12-01T00:36:21.671Z,101029.97
2022-12-01T00:38:52.035Z,101036.91
2022-12-01T00:41:19.296Z,101042.13
2022-12-01T00:43:45.986Z,101037.72
2022-12-01T00:46:12.762Z,101034.22
2022-12-01T00:48:39.809Z,101035.13
2022-12-01T00:51:06.970Z,101044.69
2022-12-01T00:53:33.650Z,101037.75
2022-12-01T00:56:00.841Z,101038.63
2022-12-01T00:58:27.276Z,101046.47
2022-12-01T01:01:00.138Z,101045.59
2022-12-01T01:03:27.611Z,101042.16
2022-12-01T01:05:54.391Z,101043.06
2022-12-01T01:08:21.156Z,101047.38
2022-12-01T01:10:48.832Z,101043.91
2022-12-01T01:13:15.695Z,101048.22
2022-12-01T01:15:42.549Z,101056.84
2022-12-01T01:18:12.221Z,101059.44
2022-12-01T01:20:39.060Z,101062.03
2022-12-01T01:23:05.807Z,101059.41
2022-12-01T01:25:32.921Z,101061.16
2022-12-01T01:27:59.461Z,101068.94
2022-12-01T01:30:26.256Z,101064.63
2022-12-01T01:32:52.794Z,101060.31
2022-12-01T01:35:19.246Z,101068.06
2022-12-01T01:37:46.282Z,101065.56
2022-12-01T01:40:13.039Z,101067.28
2022-12-01T01:42:39.509Z,101063.00
2022-12-01T01:45:29.504Z,101068.19
2022-12-01T01:48:16.463Z,101074.22
2022-12-01T01:51:03.892Z,101074.22
2022-12-01T01:53:56.080Z,101066.44
2022-12-01T01:56:44.459Z,101076.78
2022-12-01T01:59:39.132Z,101077.72
2022-12-01T02:02:08.827Z,101074.28
2022-12-01T02:04:38.631Z,101068.19
2022-12-01T02:07:06.263Z,101077.66
2022-12-01T02:09:32.939Z,101076.78
2022-12-01T02:12:25.322Z,101073.31
2022-12-01T02:15:13.336Z,101068.16
2022-12-01T02:17:42.972Z,101070.75
2022-12-01T02:20:38.357Z,101070.78
2022-12-01T02:23:28.746Z,101069.88
2022-12-01T02:26:16.279Z,101074.22
2022-12-01T02:29:25.053Z,101067.28
2022-12-01T02:32:01.083Z,101067.31
2022-12-01T02:34:43.296Z,101069.03
2022-12-01T02:37:32.160Z,101066.44
2022-12-01T02:40:13.222Z,101072.47
2022-12-01T02:42:50.989Z,101067.31
2022-12-01T02:45:36.003Z,101060.38
2022-12-01T02:48:06.460Z,101067.31
2022-12-01T02:50:35.142Z,101068.19
2022-12-01T02:53:06.074Z,101063.03
2022-12-01T02:55:32.857Z,101065.63
2022-12-01T02:57:59.326Z,101067.31
2022-12-01T03:00:26.148Z,101063.06
2022-12-01T03:03:05.893Z,101073.38
2022-12-01T03:05:51.768Z,101066.47
2022-12-01T03:08:50.953Z,101068.22
2022-12-01T03:11:32.593Z,101070.00
2022-12-01T03:14:34.434Z,101068.28
2022-12-01T03:17:08.544Z,101062.22
2022-12-01T03:19:50.445Z,101061.41
2022-12-01T03:22:25.683Z,101060.53
2022-12-01T03:24:56.243Z,101060.50
2022-12-01T03:27:27.286Z,101064.00
2022-12-01T03:29:58.237Z,101070.03
2022-12-01T03:32:33.383Z,101068.34
2022-12-01T03:35:11.134Z,101064.06
2022-12-01T03:38:15.539Z,101064.06
2022-12-01T03:40:44.488Z,101070.03
2022-12-01T03:43:15.999Z,101076.91
2022-12-01T03:46:04.463Z,101072.69
2022-12-01T03:48:31.878Z,101074.41
2022-12-01T03:51:19.893Z,101073.53
2022-12-01T03:53:56.600Z,101070.06
2022-12-01T03:56:29.098Z,101075.25
2022-12-01T03:58:58.588Z,101073.50
2022-12-01T04:01:26.545Z,101077.78
2022-12-01T04:03:53.420Z,101073.53
2022-12-01T04:06:20.684Z,101077.00
2022-12-01T04:08:47.127Z,101078.72
2022-12-01T04:11:33.094Z,101081.31
2022-12-01T04:14:00.021Z,101087.31
2022-12-01T04:16:26.781Z,101082.16
2022-12-01T04:18:53.298Z,101086.47
2022-12-01T04:21:20.246Z,101091.63
2022-12-01T04:24:01.929Z,101090.78
2022-12-01T04:26:37.020Z,101088.19
2022-12-01T04:29:09.581Z,101091.63
2022-12-01T04:31:36.902Z,101092.50
2022-12-01T04:34:04.088Z,101087.31
2022-12-01T04:36:32.707Z,101096.81
2022-12-01T04:38:59.477Z,101090.78
2022-12-01T04:41:26.214Z,101093.41
2022-12-01T04:43:54.684Z,101098.56
2022-12-01T04:46:22.143Z,101103.75
2022-12-01T04:48:48.955Z,101100.31
2022-12-01T04:51:15.737Z,101102.88
2022-12-01T04:53:42.193Z,101101.16
2022-12-01T04:56:09.341Z,101093.41
2022-12-01T04:58:37.699Z,101087.38
2022-12-01T05:01:06.396Z,101104.66
2022-12-01T05:03:37.311Z,101102.03
2022-12-01T05:06:13.128Z,101102.91
2022-12-01T05:08:40.573Z,101106.38
2022-12-01T05:11:08.776Z,101115.84
2022-12-01T05:14:12.871Z,101113.22
2022-12-01T05:16:49.162Z,101113.25
2022-12-01T05:23:05.263Z,101117.56
2022-12-01T05:25:37.165Z,101109.81
2022-12-01T05:28:09.303Z,101111.53
2022-12-01T05:30:39.684Z,101119.31
2022-12-01T05:33:07.477Z,101108.94
2022-12-01T05:35:34.598Z,101108.09
2022-12-01T05:38:06.101Z,101117.56
2022-12-01T05:40:41.665Z,101120.16
2022-12-01T05:43:09.168Z,101121.00
2022-12-01T05:45:36.563Z,101116.72
2022-12-01T05:48:05.899Z,101111.56
2022-12-01T05:50:32.673Z,101114.13
2022-12-01T05:52:59.325Z,101120.13
2022-12-01T05:55:25.757Z,101115.88
2022-12-01T05:57:52.548Z,101120.13
2022-12-01T06:00:22.438Z,101126.19
2022-12-01T06:02:48.857Z,101132.22
2022-12-01T06:05:15.953Z,101130.50
2022-12-01T06:07:42.855Z,101126.19
2022-12-01T06:10:11.092Z,101128.75
2022-12-01T06:12:38.624Z,101129.63
2022-12-01T06:15:06.994Z,101137.38
2022-12-01T06:17:39.781Z,101139.09
2022-12-01T06:20:08.009Z,101127.91
2022-12-01T06:22:34.733Z,101131.34
2022-12-01T06:25:01.287Z,101132.22
2022-12-01T06:27:27.800Z,101139.09
2022-12-01T06:29:54.393Z,101139.09
2022-12-01T06:32:21.375Z,101141.69
2022-12-01T06:34:47.841Z,101149.41
2022-12-01T06:37:15.700Z,101140.81
2022-12-01T06:39:42.551Z,101139.97
2022-12-01T06:42:09.370Z,101141.66
2022-12-01T06:44:35.908Z,101138.22
2022-12-01T06:47:02.565Z,101138.25
2022-12-01T06:49:29.092Z,101150.28
2022-12-01T06:51:56.421Z,101150.28
2022-12-01T06:54:22.831Z,101147.69
2022-12-01T06:56:49.492Z,101149.41
2022-12-01T06:59:16.388Z,101159.75
2022-12-01T07:01:43.560Z,101146.81
2022-12-01T07:04:10.043Z,101155.44
2022-12-01T07:06:36.444Z,101153.72
2022-12-01T07:09:03.249Z,101158.03
2022-12-01T07:11:32.150Z,101159.75
2022-12-01T07:13:58.915Z,101160.59
2022-12-01T07:16:25.993Z,101159.75
2022-12-01T07:18:52.814Z,101158.91
2022-12-01T07:21:19.377Z,101161.47
2022-12-01T07:23:46.630Z,101164.06
2022-12-01T07:26:15.593Z,101163.19
2022-12-01T07:28:42.256Z,101168.34
2022-12-01T07:31:14.938Z,101173.53
2022-12-01T07:33:42.272Z,101169.22
2022-12-01T07:36:10.804Z,101170.94
2022-12-01T07:38:38.611Z,101165.78
2022-12-01T07:41:19.408Z,101170.94
2022-12-01T07:43:49.012Z,101171.81
2022-12-01T07:46:23.312Z,101176.94
2022-12-01T07:48:51.667Z,101176.09
2022-12-01T07:51:19.405Z,101176.09
2022-12-01T07:53:47.303Z,101176.13
2022-12-01T07:56:14.507Z,101169.22
2022-12-01T07:58:41.880Z,101173.53
2022-12-01T08:01:14.293Z,101169.25
2022-12-01T08:03:41.320Z,101169.25
2022-12-01T08:06:09.090Z,101177.81
2022-12-01T08:08:38.191Z,101178.69
2022-12-01T08:11:08.900Z,101173.53
2022-12-01T08:13:35.714Z,101175.28
2022-12-01T08:16:07.798Z,101180.44
2022-12-01T08:18:39.330Z,101178.69
2022-12-01T08:21:07.732Z,101176.97
2022-12-01T08:23:34.918Z,101174.38
2022-12-01T08:26:02.826Z,101183.88
2022-12-01T08:28:29.780Z,101181.28
2022-12-01T08:30:56.760Z,101182.16
2022-12-01T08:33:26.700Z,101185.59
2022-12-01T08:35:54.902Z,101192.50
2022-12-01T08:38:21.488Z,101176.13
2022-12-01T08:40:47.980Z,101189.03
2022-12-01T08:43:41.512Z,101190.78
2022-12-01T08:46:02.099Z,101183.88
2022-12-01T08:48:31.868Z,101189.88
2022-12-01T08:51:10.041Z,101186.44
2022-12-01T08:53:44.006Z,101191.63
2022-12-01T08:56:18.045Z,101187.28
2022-12-01T08:58:50.312Z,101187.31
2022-12-01T09:01:17.859Z,101195.06
2022-12-01T09:03:44.741Z,101190.75
2022-12-01T09:06:17.650Z,101189.03
2022-12-01T09:08:44.437Z,101201.09
2022-12-01T09:11:13.750Z,101198.50
2022-12-01T09:13:42.161Z,101195.06
2022-12-01T09:16:14.769Z,101189.88
2022-12-01T09:18:43.276Z,101197.63
2022-12-01T09:21:24.500Z,101192.47
2022-12-01T09:23:51.635Z,101201.94
2022-12-01T09:26:19.590Z,101196.78
2022-12-01T09:28:48.512Z,101193.34
2022-12-01T09:31:16.313Z,101190.75
2022-12-01T09:33:45.577Z,101194.19
2022-12-01T09:36:13.498Z,101193.34
2022-12-01T09:38:40.290Z,101186.44
2022-12-01T09:41:21.519Z,101189.03
2022-12-01T09:43:59.118Z,101191.59
2022-12-01T09:46:31.997Z,101183.00
2022-12-01T09:49:02.836Z,101185.59
2022-12-01T09:51:30.942Z,101182.13
2022-12-01T09:53:59.621Z,101176.09
2022-12-01T09:56:32.878Z,101177.81
2022-12-01T09:59:02.126Z,101182.97
2022-12-01T10:01:41.581Z,101177.84
2022-12-01T10:04:36.322Z,101175.25
2022-12-01T10:07:24.513Z,101173.50
2022-12-01T10:10:01.230Z,101170.03
2022-12-01T10:12:32.496Z,101165.72
2022-12-01T10:15:30.150Z,101164.81
2022-12-01T10:18:16.607Z,101152.75
2022-12-01T10:20:55.634Z,101156.25
2022-12-01T10:23:28.166Z,101155.38
2022-12-01T10:26:00.547Z,101161.44
2022-12-01T10:28:39.412Z,101151.94
2022-12-01T10:31:18.198Z,101151.06
2022-12-01T10:34:11.996Z,101140.75
2022-12-01T10:36:38.524Z,101142.47
2022-12-01T10:39:09.345Z,101136.38
2022-12-01T10:41:38.747Z,101132.94
2022-12-01T10:44:07.560Z,101126.03
2022-12-01T10:46:45.394Z,101120.84
2022-12-01T10:49:15.817Z,101119.16
2022-12-01T10:51:55.709Z,101120.84
2022-12-01T10:54:31.220Z,101113.97
2022-12-01T10:56:59.296Z,101107.88
2022-12-01T10:59:34.333Z,101107.81
2022-12-01T11:02:02.660Z,101112.16
2022-12-01T11:04:46.517Z,101110.44
2022-12-01T11:07:20.222Z,101109.56
2022-12-01T11:09:55.827Z,101112.16
2022-12-01T11:12:23.459Z,101102.66
2022-12-01T11:14:52.574Z,101099.19
2022-12-01T11:17:43.810Z,101098.41
2022-12-01T11:20:39.316Z,101094.91
2022-12-01T11:23:21.330Z,101093.19
2022-12-01T11:26:12.597Z,101090.56
2022-12-01T11:28:44.038Z,101089.69
2022-12-01T11:31:12.142Z,101094.88
2022-12-01T11:33:58.918Z,101088.00
2022-12-01T11:36:33.080Z,101088.00
2022-12-01T11:39:01.907Z,101094.03
2022-12-01T11:41:32.668Z,101084.53
2022-12-01T11:44:04.149Z,101087.09
2022-12-01T11:46:46.478Z,101083.69
2022-12-01T11:49:22.671Z,101080.16
2022-12-01T11:51:50.008Z,101079.28
2022-12-01T11:54:21.713Z,101080.22
2022-12-01T11:56:56.153Z,101081.00
2022-12-01T11:59:36.235Z,101079.28
2022-12-01T12:02:28.475Z,101076.81
2022-12-01T12:05:13.887Z,101081.94
2022-12-01T12:08:18.083Z,101079.28
2022-12-01T12:10:57.094Z,101075.06
2022-12-01T12:13:32.803Z,101079.47
2022-12-01T12:16:12.417Z,101071.63
2022-12-01T12:19:03.227Z,101070.72
2022-12-01T12:22:07.420Z,101071.50
2022-12-01T12:24:50.583Z,101064.53
2022-12-01T12:27:26.750Z,101066.28
2022-12-01T12:30:21.695Z,101063.72
2022-12-01T12:32:58.729Z,101062.88
2022-12-01T12:35:35.665Z,101069.63
2022-12-01T12:38:34.642Z,101060.06
2022-12-01T12:41:31.871Z,101060.09
2022-12-01T12:44:37.047Z,101057.59
2022-12-01T12:47:31.468Z,101056.72
2022-12-01T12:50:06.299Z,101057.53
2022-12-01T12:52:34.755Z,101056.81
2022-12-01T12:55:12.447Z,101056.72
2022-12-01T12:57:45.672Z,101057.56
2022-12-01T13:00:12.475Z,101058.41
2022-12-01T13:03:05.899Z,101053.97
2022-12-01T13:05:44.539Z,101055.84
2022-12-01T13:08:20.409Z,101053.25
2022-12-01T13:11:02.354Z,101053.97
2022-12-01T13:13:51.346Z,101051.34
2022-12-01T13:16:24.338Z,101046.34
2022-12-01T13:18:56.090Z,101052.31
2022-12-01T13:21:24.025Z,101051.41
2022-12-01T13:23:52.301Z,101057.41
2022-12-01T13:26:21.281Z,101046.13
2022-12-01T13:28:51.713Z,101049.66
2022-12-01T13:31:20.854Z,101042.72
2022-12-01T13:34:00.618Z,101048.72
2022-12-01T13:39:36.397Z,101037.50
2022-12-01T13:42:05.695Z,101029.53
2022-12-01T13:44:44.647Z,101026.03
2022-12-01T13:47:11.425Z,101028.41
2022-12-01T13:49:40.460Z,101030.25
2022-12-01T13:52:22.529Z,101023.97
2022-12-01T13:55:07.702Z,101031.47
2022-12-01T13:57:47.479Z,101029.50
2022-12-01T14:00:26.944Z,101019.94
2022-12-01T14:03:12.541Z,101016.75
2022-12-01T14:05:39.715Z,101014.63
2022-12-01T14:08:40.280Z,101013.09
2022-12-01T14:11:19.296Z,101019.97
2022-12-01T14:13:59.478Z,101008.13
2022-12-01T14:16:58.655Z,101026.44
2022-12-01T14:19:35.905Z,101019.72
2022-12-01T14:22:04.653Z,101020.59
2022-12-01T14:24:42.388Z,101016.22
2022-12-01T14:27:11.799Z,101009.03
2022-12-01T14:29:42.988Z,101011.84
2022-12-01T14:32:09.494Z,101016.13
2022-12-01T14:34:38.036Z,101018.00
2022-12-01T14:37:19.822Z,101009.47
2022-12-01T14:39:58.375Z,101015.78
2022-12-01T14:42:52.361Z,101005.28
2022-12-01T14:45:24.958Z,101006.13
2022-12-01T14:47:59.087Z,101008.81
2022-12-01T14:50:33.194Z,101005.25
2022-12-01T14:53:16.560Z,101009.75
2022-12-01T14:55:53.893Z,101010.59
2022-12-01T14:58:24.572Z,101001.94
2022-12-01T15:01:05.831Z,101005.44
2022-12-01T15:03:49.978Z,101010.72
2022-12-01T15:06:25.172Z,101011.50
2022-12-01T15:09:34.936Z,101013.41
2022-12-01T15:12:07.244Z,101010.81
2022-12-01T15:14:37.600Z,101013.50
2022-12-01T15:17:06.110Z,101007.38
2022-12-01T15:19:35.839Z,100999.56
2022-12-01T15:22:06.347Z,101007.44
2022-12-01T15:24:34.088Z,101007.53
2022-12-01T15:27:03.937Z,101003.19
2022-12-01T15:29:44.651Z,101008.41
2022-12-01T15:32:16.372Z,101011.84
2022-12-01T15:34:45.857Z,101014.56
2022-12-01T15:37:24.391Z,101008.47
2022-12-01T15:40:10.063Z,101014.53
2022-12-01T15:42:43.059Z,101015.41
2022-12-01T15:45:22.683Z,101014.53
2022-12-01T15:47:51.680Z,101016.31
2022-12-01T15:50:39.745Z,101024.06
2022-12-01T15:53:27.508Z,101018.03
2022-12-01T15:55:59.108Z,101019.78
2022-12-01T15:58:32.868Z,101023.19
2022-12-01T16:01:03.106Z,101018.06
2022-12-01T16:03:30.201Z,101018.97
2022-12-01T16:05:57.951Z,101018.06
2022-12-01T16:08:27.405Z,101012.09
2022-12-01T16:11:13.785Z,101008.63
2022-12-01T16:13:45.131Z,101006.06
2022-12-01T16:16:46.467Z,101009.44
2022-12-01T16:19:12.950Z,101005.13
2022-12-01T16:22:01.252Z,101007.81
2022-12-01T16:24:35.694Z,101006.09
2022-12-01T16:27:05.991Z,101006.06
2022-12-01T16:29:49.897Z,101015.56
2022-12-01T16:32:38.759Z,101016.47
2022-12-01T16:35:20.201Z,101007.03
2022-12-01T16:37:46.921Z,101014.72
2022-12-01T16:40:16.810Z,101011.28
2022-12-01T16:42:43.411Z,101018.25
2022-12-01T16:45:15.830Z,101021.66
2022-12-01T16:47:43.240Z,101020.00
2022-12-01T16:50:14.800Z,101021.72
2022-12-01T16:52:44.708Z,101026.03
2022-12-01T16:55:42.363Z,101022.59
2022-12-01T16:58:09.010Z,101021.72
2022-12-01T17:00:36.122Z,101025.16
2022-12-01T17:03:03.103Z,101023.34
2022-12-01T17:05:30.718Z,101031.13
2022-12-01T17:08:00.148Z,101025.09
2022-12-01T17:10:26.910Z,101021.72
2022-12-01T17:12:53.919Z,101024.28
2022-12-01T17:15:20.447Z,101031.19
2022-12-01T17:17:47.344Z,101032.00
2022-12-01T17:20:14.813Z,101026.88
2022-12-01T17:22:41.646Z,101036.34
2022-12-01T17:25:09.668Z,101030.31
2022-12-01T17:27:37.783Z,101037.22
2022-12-01T17:30:06.274Z,101029.50
2022-12-01T17:32:32.751Z,101029.47
2022-12-01T17:35:00.391Z,101031.19
2022-12-01T17:37:29.918Z,101032.94
2022-12-01T17:39:56.698Z,101033.78
2022-12-01T17:42:23.228Z,101044.97
2022-12-01T17:44:49.994Z,101049.28
2022-12-01T17:47:16.942Z,101041.53
2022-12-01T17:49:43.535Z,101036.34
2022-12-01T17:52:10.545Z,101034.69
2022-12-01T17:54:38.266Z,101039.84
2022-12-01T17:57:06.818Z,101037.25
2022-12-01T17:59:35.016Z,101038.97
2022-12-01T18:02:01.707Z,101034.63
2022-12-01T18:04:30.653Z,101037.25
2022-12-01T18:07:00.972Z,101043.34
2022-12-01T18:09:27.908Z,101033.78
2022-12-01T18:11:56.350Z,101039.81
2022-12-01T18:14:24.569Z,101035.50
2022-12-01T18:16:52.277Z,101032.06
2022-12-01T18:19:20.300Z,101032.91
2022-12-01T18:21:47.169Z,101028.63
2022-12-01T18:24:13.617Z,101027.75
2022-12-01T18:26:40.900Z,101021.72
2022-12-01T18:29:13.017Z,101023.44
2022-12-01T18:31:40.892Z,101023.44
2022-12-01T18:34:08.946Z,101023.44
2022-12-01T18:36:37.899Z,101026.88
2022-12-01T18:39:07.526Z,101027.78
2022-12-01T18:41:35.250Z,101031.22
2022-12-01T18:44:02.642Z,101028.63
2022-12-01T18:46:29.546Z,101029.47
2022-12-01T18:49:04.531Z,101025.16
2022-12-01T18:51:33.396Z,101020.84
2022-12-01T18:54:01.575Z,101023.44
2022-12-01T18:56:29.379Z,101018.25
2022-12-01T18:58:58.199Z,101021.66
2022-12-01T19:01:27.221Z,101019.16
2022-12-01T19:03:58.070Z,101021.72
2022-12-01T19:06:25.813Z,101023.47
2022-12-01T19:08:54.579Z,101023.47
2022-12-01T19:11:22.098Z,101016.56
2022-12-01T19:13:48.833Z,101023.44
2022-12-01T19:16:18.104Z,101025.16
2022-12-01T19:18:45.590Z,101032.00
2022-12-01T19:21:16.334Z,101027.69
2022-12-01T19:23:43.780Z,101018.19
2022-12-01T19:26:17.209Z,101020.81
2022-12-01T19:28:45.861Z,101018.25
2022-12-01T19:31:19.403Z,101018.25
2022-12-01T19:33:46.965Z,101026.00
2022-12-01T19:36:19.686Z,101026.94
2022-12-01T19:38:47.480Z,101024.34
2022-12-01T19:41:15.160Z,101015.69
2022-12-01T19:43:42.635Z,101013.09
2022-12-01T19:46:14.941Z,101017.41
2022-12-01T19:48:43.141Z,101019.16
2022-12-01T19:51:21.474Z,101019.16
2022-12-01T19:53:48.906Z,101008.81
2022-12-01T19:56:15.666Z,101020.03
2022-12-01T19:58:42.756Z,101015.72
2022-12-01T20:01:15.165Z,101014.84
2022-12-01T20:03:44.267Z,101011.41
2022-12-01T20:06:12.646Z,101011.38
2022-12-01T20:08:39.955Z,101013.97
2022-12-01T20:11:07.548Z,101007.06
2022-12-01T20:13:40.179Z,101013.13
2022-12-01T20:16:19.613Z,101008.84
2022-12-01T20:18:47.041Z,101003.66
2022-12-01T20:21:21.174Z,101004.47
2022-12-01T20:23:55.530Z,100994.16
2022-12-01T20:26:28.929Z,100991.59
2022-12-01T20:29:01.040Z,100994.22
2022-12-01T20:31:30.021Z,100993.38
2022-12-01T20:33:58.205Z,100994.22
2022-12-01T20:36:25.742Z,100999.41
2022-12-01T20:38:52.706Z,101003.72
2022-12-01T20:41:19.694Z,101008.94
2022-12-01T20:43:46.885Z,101002.88
2022-12-01T20:46:14.344Z,100999.44
2022-12-01T20:48:41.592Z,100995.97
2022-12-01T20:51:11.273Z,100990.81
2022-12-01T20:53:40.065Z,100998.56
2022-12-01T20:56:10.261Z,100991.66
2022-12-01T20:58:38.200Z,100992.63
2022-12-01T21:01:09.360Z,101000.38
2022-12-01T21:03:38.213Z,100991.75
2022-12-01T21:06:06.259Z,100989.16
2022-12-01T21:08:33.380Z,100992.59
2022-12-01T21:11:08.504Z,100992.63
2022-12-01T21:13:44.611Z,100996.06
2022-12-01T21:16:16.527Z,100990.88
2022-12-01T21:19:11.817Z,100987.44
2022-12-01T21:21:40.174Z,100986.59
2022-12-01T21:24:15.818Z,100985.72
2022-12-01T21:27:06.735Z,100990.94
2022-12-01T21:29:41.749Z,100995.22
2022-12-01T21:32:29.012Z,100996.09
2022-12-01T21:35:01.296Z,100991.75
2022-12-01T21:37:31.512Z,100990.03
2022-12-01T21:39:58.224Z,100990.97
2022-12-01T21:42:31.535Z,100991.84
2022-12-01T21:44:58.324Z,100987.53
2022-12-01T21:47:29.909Z,100988.41
2022-12-01T21:50:03.170Z,100989.25
2022-12-01T21:52:39.044Z,100994.38
2022-12-01T21:55:15.240Z,100993.56
2022-12-01T21:57:43.587Z,100989.25
2022-12-01T22:00:22.256Z,100992.66
2022-12-01T22:03:02.451Z,100995.28
2022-12-01T22:05:36.542Z,100995.28
2022-12-01T22:08:21.855Z,100985.81
2022-12-01T22:10:56.449Z,100985.81
2022-12-01T22:13:36.627Z,100987.59
2022-12-01T22:16:03.389Z,100985.88
2022-12-01T22:18:37.922Z,100983.28
2022-12-01T22:21:22.763Z,100983.25
2022-12-01T22:23:56.867Z,100982.38
2022-12-01T22:26:24.254Z,100984.09
2022-12-01T22:28:55.088Z,100979.84
2022-12-01T22:31:22.510Z,100976.41
2022-12-01T22:34:01.501Z,100987.59
2022-12-01T22:36:33.205Z,100975.56
2022-12-01T22:38:59.860Z,100977.28
2022-12-01T22:41:28.463Z,100969.56
2022-12-01T22:44:22.485Z,100973.84
2022-12-01T22:46:49.187Z,100970.41
2022-12-01T22:49:22.068Z,100968.66
2022-12-01T22:51:57.013Z,100954.94
2022-12-01T22:54:49.147Z,100959.25
2022-12-01T22:57:34.781Z,100956.66
2022-12-01T23:00:14.291Z,100960.97
2022-12-01T23:02:40.999Z,100960.97
2022-12-01T23:05:27.363Z,100957.47
2022-12-01T23:07:54.831Z,100962.69
2022-12-01T23:10:24.384Z,100955.81
2022-12-01T23:12:53.846Z,100962.69
2022-12-01T23:15:38.884Z,100961.81
2022-12-01T23:18:13.939Z,100965.25
2022-12-01T23:20:42.447Z,100953.22
2022-12-01T23:23:13.964Z,100951.50
2022-12-01T23:25:42.091Z,100948.06
2022-12-01T23:28:10.474Z,100946.34
2022-12-01T23:30:40.541Z,100946.34
2022-12-01T23:33:22.025Z,100940.31
2022-12-01T23:36:05.502Z,100942.03
2022-12-01T23:38:45.515Z,100940.31
2022-12-01T23:41:31.251Z,100940.31
2022-12-01T23:44:03.444Z,100928.25
2022-12-01T23:46:32.589Z,100930.84
2022-12-01T23:49:05.130Z,100927.34
2022-12-01T23:51:40.043Z,100927.41
2022-12-01T23:54:14.065Z,100917.94
2022-12-01T23:56:40.608Z,100911.91
2022-12-01T23:59:12.849Z,100907.63
